Dayton, OH

8:33 AM EDT on April 29, 2017 (GMT -0400)
Beavercreek | | Change Station

Elev 942 ft 39.74 °N, 84.08 °W | Updated 4 seconds ago

Rain
Rain
62.3 °F
Feels Like 62.3 °F
N
4.0
Wind Variable Wind from NE
Gusts 4.0 mph

Today
High -- | Low -- °F
--% Chance of Precip.
Yesterday
High -- | Low -- °F
Precip. -- in
Pressure 30.05 in
Visibility 3.0 miles
Clouds Few 300 ft
Mostly Cloudy 800 ft
Mostly Cloudy 1100 ft
Overcast 7000 ft
Dew Point 62 °F
Humidity 98%
Rainfall 0.89 in
Snow Depth Not available.
6:39 AM 8:28 PM
Waxing Crescent, 13% visible
SPECI KFFO 291209Z 00000KT 3SM -TSRA BR FEW003 BKN008 BKN011 OVC070 16/16 A3004 RMK AO2A CIG 008V014 PRESRR SLP174
Pressure 30.05 in
Visibility 3.0 miles
Clouds Few 300 ft
Mostly Cloudy 800 ft
Mostly Cloudy 1100 ft
Overcast 7000 ft
Dew Point 62 °F
Humidity 98%
Rainfall 0.89 in
Snow Depth Not available.
6:39 AM 8:28 PM
Waxing Crescent, 13% visible
SPECI KFFO 291209Z 00000KT 3SM -TSRA BR FEW003 BKN008 BKN011 OVC070 16/16 A3004 RMK AO2A CIG 008V014 PRESRR SLP174

Get Severe Weather Alerts

Thanks for signing up!

Be on the lookout for a verification email in your inbox.

You'll start receiving the daily forecast at 8 AM.

×

10-Day Weather Forecast

Almanac

Astronomy

Apr. 29, 2017 Rise Set
Actual Time
Civil Twilight
Nautical Twilight
Astronomical Twilight
Moon
Length of Visible Light
Length of Day
Tomorrow will be .
, % of the Moon is Illuminated

Today's Extremes

State Highs State Lows

Community

WunderPhotos

WunderBlog® & News

Nearby

Air Quality

  Air Quality AQ Index Pollutant
Not available.

Snow Depth

Station Depth Elevation

Earthquake Activity

City Distance Mag. Time & Date
Minimum magnitude displayed is 2.5.

Coastal Water Temperatures

Place Temperature

Stations

Nearby Weather Stations

Station Location Temp. Windchill Dew Point Humidity Wind Precip. Elev Updated Type
                   

Watches & Warnings

There are currently no watches in effect.